Runnelstown, Mississippi
Current Conditions -  °F | °C
As of 7:53 PM on Friday 19 Dec 2014 (Local Time) from KHBG Reporting Station
Heavy Rain Heavy Rain  
Wind Chill: 43°   Ceiling: 800
Heat Index: 47°   Visibility: 3mi
Dew Point: 45°   Wind: 8mph
Humidity: 93%   Direction: 60°ENE
Pressure: 30.15"   Gusts: NA
Location:  31.1996°N, 89.2694°W
Report Text: KHBG 200153Z AUTO 06007KT 3SM +RA BR BKN008 BKN036 OVC043 08/07 A3015 RMK AO2 SLP209 P0016 T00830072
Loading
Personal Weather Stations






























Interactive Weather Map New forecast layout! Learn more

10-Day Weather Forecast

Advertisements
Track Severe Weather on mobile